Time;durP1;ratioP1;P1;durP2;ratioP2;P2;SDS_P1;SDS_P2;PMS_P1;PMS_P2;Temp;Humidity;BMP_temperature;BMP_pressure;BME280_temperature;BME280_humidity;BME280_pressure;Samples;Min_cycle;Max_cycle;Signal;HPM_P1;HPM_P2
2021/12/24 00:00:55;;;;;;;58.47;43.53;;;;;;;2.03;57.87;101811.56;2079254;28;20266;-68
2021/12/24 00:01:56;;;;;;;60.22;45.05;;;;;;;1.79;57.66;101792.47;2071729;28;20173;-68
2021/12/24 00:02:56;;;;;;;60.60;45.43;;;;;;;1.99;57.80;101810.66;2080604;28;20232;-68
2021/12/24 00:03:57;;;;;;;61.33;45.10;;;;;;;1.55;57.90;101757.00;2081451;28;20177;-68
2021/12/24 00:04:58;;;;;;;59.43;43.27;;;;;;;1.25;57.79;101692.88;2081236;28;20184;-68
2021/12/24 00:05:58;;;;;;;57.20;42.03;;;;;;;2.03;57.96;101840.81;2081292;28;20234;-68
2021/12/24 00:06:59;;;;;;;56.13;43.13;;;;;;;2.01;58.18;101819.28;2081436;28;20773;-68
2021/12/24 00:08:00;;;;;;;60.63;44.97;;;;;;;1.98;57.69;101820.00;2081514;28;20184;-68
2021/12/24 00:09:00;;;;;;;60.15;43.05;;;;;;;1.96;57.94;101811.34;2081435;28;20610;-68
2021/12/24 00:10:01;;;;;;;59.13;43.27;;;;;;;1.95;58.37;101804.28;2080600;28;20256;-68
2021/12/24 00:11:03;;;;;;;59.23;43.67;;;;;;;1.94;57.53;101801.88;2080724;28;20528;-68
2021/12/24 00:12:11;;;;;;;60.03;43.88;;;;;;;1.92;58.44;101804.19;2081113;28;20663;-68
2021/12/24 00:13:15;;;;;;;55.67;43.58;;;;;;;1.06;58.58;101672.75;2081494;28;20706;-68
2021/12/24 00:14:16;;;;;;;58.47;43.75;;;;;;;1.90;58.38;101801.78;2081091;28;20204;-68
2021/12/24 00:15:45;;;;;;;61.70;44.07;;;;;;;1.70;58.14;101764.47;2081501;28;20729;-68
2021/12/24 00:16:42;;;;;;;59.58;43.80;;;;;;;1.89;57.84;101794.72;2080840;28;20194;-68
2021/12/24 00:17:43;;;;;;;66.80;46.70;;;;;;;1.86;58.05;101803.59;2081551;28;20173;-68
2021/12/24 00:20:04;;;;;;;62.93;44.87;;;;;;;1.86;58.20;101805.56;2081433;28;20307;-68
2021/12/24 00:35:51;;;;;;;60.42;42.58;;;;;;;1.57;58.50;101776.59;2081318;28;20165;-68
2021/12/24 00:36:51;;;;;;;57.80;42.75;;;;;;;1.52;58.75;101771.34;2080848;28;20176;-68
2021/12/24 00:37:52;;;;;;;57.43;42.73;;;;;;;1.61;58.13;101768.50;2081318;28;20179;-68
2021/12/24 00:38:52;;;;;;;58.60;43.40;;;;;;;1.62;58.32;101781.81;2080899;28;20183;-68
2021/12/24 00:41:09;;;;;;;59.67;42.70;;;;;;;1.19;58.36;101713.34;2080370;28;20183;-68
2021/12/24 00:42:09;;;;;;;58.77;43.83;;;;;;;1.63;58.50;101771.66;2080934;28;20188;-68
2021/12/24 00:43:12;;;;;;;57.87;43.63;;;;;;;1.50;58.19;101751.75;2080441;28;20192;-68
2021/12/24 00:44:12;;;;;;;58.17;42.72;;;;;;;1.57;58.27;101754.72;2080343;28;20673;-68
2021/12/24 00:45:15;;;;;;;60.80;42.67;;;;;;;1.60;58.32;101767.69;2081288;28;20571;-68
2021/12/24 00:46:16;;;;;;;62.75;45.08;;;;;;;1.62;58.43;101764.63;2080894;28;20589;-68
2021/12/24 00:47:16;;;;;;;59.37;44.47;;;;;;;1.61;58.39;101763.03;2081258;28;20204;-68
2021/12/24 00:48:19;;;;;;;61.83;44.97;;;;;;;1.60;58.15;101769.63;2080755;28;20590;-68
2021/12/24 00:49:20;;;;;;;58.65;43.20;;;;;;;1.59;58.38;101760.63;2081064;28;20623;-68
2021/12/24 00:50:25;;;;;;;61.90;43.90;;;;;;;1.53;58.44;101753.81;2080073;28;20187;-68
2021/12/24 00:51:42;;;;;;;58.63;43.17;;;;;;;1.44;58.03;101746.91;2080683;28;20172;-68
2021/12/24 00:52:58;;;;;;;62.83;45.15;;;;;;;1.64;58.26;101762.34;2080819;28;20181;-68
2021/12/24 00:55:25;;;;;;;65.43;45.13;;;;;;;1.56;58.44;101758.59;2081125;28;20173;-68
2021/12/24 00:56:26;;;;;;;67.95;46.03;;;;;;;1.42;58.18;101728.13;2080866;28;20626;-68
2021/12/24 00:57:26;;;;;;;63.37;45.03;;;;;;;1.50;58.10;101751.75;2080846;28;20227;-68
2021/12/24 00:58:27;;;;;;;68.60;46.70;;;;;;;1.47;58.14;101744.28;2080888;28;20187;-68
2021/12/24 00:59:28;;;;;;;65.37;45.57;;;;;;;0.49;58.68;101585.63;2081159;28;20279;-67
2021/12/24 01:00:35;;;;;;;64.30;45.37;;;;;;;1.45;58.50;101734.84;2079715;28;20212;-68
2021/12/24 01:01:35;;;;;;;64.25;46.03;;;;;;;1.54;58.08;101739.00;2081094;28;20204;-68
2021/12/24 01:02:36;;;;;;;65.10;47.07;;;;;;;1.53;58.21;101747.56;2080494;28;20192;-68
2021/12/24 01:03:37;;;;;;;58.67;43.10;;;;;;;1.51;58.28;101733.44;2080984;28;20171;-68
2021/12/24 01:04:37;;;;;;;59.30;43.30;;;;;;;1.50;58.36;101732.63;2080782;28;20658;-68
2021/12/24 01:05:40;;;;;;;57.83;42.60;;;;;;;1.52;58.33;101735.03;2081090;28;20184;-67
2021/12/24 01:06:41;;;;;;;61.67;44.67;;;;;;;1.54;57.92;101724.56;2080729;28;20188;-67
2021/12/24 01:07:44;;;;;;;65.57;46.00;;;;;;;1.11;58.05;101658.88;2081249;28;20176;-67
2021/12/24 01:08:45;;;;;;;62.53;46.28;;;;;;;0.60;58.55;101591.41;2080692;28;20205;-67
2021/12/24 01:09:45;;;;;;;60.57;45.67;;;;;;;1.47;58.51;101716.97;2080983;28;20275;-67
2021/12/24 01:10:48;;;;;;;63.13;45.57;;;;;;;1.51;58.31;101719.78;2079159;28;20211;-67
2021/12/24 01:11:48;;;;;;;58.15;43.17;;;;;;;1.51;58.41;101717.06;2080927;28;20244;-67
2021/12/24 01:12:49;;;;;;;63.10;45.77;;;;;;;1.51;58.03;101709.66;2080535;28;20226;-67
2021/12/24 01:13:49;;;;;;;60.47;44.33;;;;;;;1.48;57.88;101706.81;2081166;28;20180;-67
2021/12/24 01:14:50;;;;;;;63.07;46.37;;;;;;;1.43;57.85;101710.59;2080666;28;20227;-67
2021/12/24 01:16:06;;;;;;;65.50;47.30;;;;;;;1.44;58.59;101698.50;2080911;28;20661;-67
2021/12/24 01:17:19;;;;;;;61.90;45.70;;;;;;;1.34;58.42;101681.81;2080841;28;20203;-67
2021/12/24 01:19:24;;;;;;;66.93;48.95;;;;;;;1.42;58.49;101698.06;2081222;28;20225;-67
2021/12/24 01:20:32;;;;;;;67.05;48.55;;;;;;;0.24;58.30;101504.97;2079913;28;20192;-67
2021/12/24 01:23:59;;;;;;;67.03;48.75;;;;;;;1.46;58.52;101682.59;2080734;28;20247;-67
2021/12/24 01:25:11;;;;;;;71.72;50.08;;;;;;;1.47;58.73;101669.72;2080844;28;20542;-67
2021/12/24 01:26:19;;;;;;;67.78;47.63;;;;;;;1.36;58.79;101661.22;2080648;28;20172;-67
2021/12/24 01:30:07;;;;;;;67.10;47.80;;;;;;;1.44;58.40;101678.63;2078949;28;20196;-67
2021/12/24 01:42:39;;;;;;;73.13;49.28;;;;;;;1.18;59.44;101642.72;2080115;28;20579;-67
2021/12/24 01:42:45;;;;;;;65.05;45.75;;;;;;;1.16;59.11;101645.00;2080466;28;20567;-67
2021/12/24 01:43:46;;;;;;;70.82;50.40;;;;;;;1.10;59.49;101638.19;2072732;28;20179;-67
2021/12/24 01:44:46;;;;;;;74.97;53.23;;;;;;;1.09;59.39;101633.88;2072312;28;20195;-67
2021/12/24 01:45:50;;;;;;;79.23;54.60;;;;;;;1.09;59.65;101637.38;2072715;28;20183;-67
2021/12/24 01:46:51;;;;;;;78.68;54.33;;;;;;;1.03;59.23;101630.56;2072350;28;20191;-67
2021/12/24 01:47:54;;;;;;;78.07;54.33;;;;;;;1.07;58.78;101641.59;2077055;28;20184;-67
2021/12/24 01:48:54;;;;;;;79.78;54.13;;;;;;;0.23;59.23;101508.84;2080617;28;20169;-67
2021/12/24 01:49:54;;;;;;;72.90;50.83;;;;;;;1.03;59.10;101643.44;2080708;28;20230;-67
2021/12/24 01:50:55;;;;;;;76.37;54.97;;;;;;;1.00;59.30;101644.91;2079492;28;20222;-67
2021/12/24 01:51:57;;;;;;;78.77;51.73;;;;;;;0.73;58.94;101623.00;2080618;28;20564;-67
2021/12/24 01:52:58;;;;;;;73.50;50.92;;;;;;;-0.01;58.88;101487.03;2080587;28;20234;-67
2021/12/24 01:53:59;;;;;;;76.93;53.23;;;;;;;0.94;59.39;101635.34;2080581;28;20180;-67
2021/12/24 01:55:00;;;;;;;79.10;55.10;;;;;;;0.86;59.25;101630.03;2080632;28;20192;-67
2021/12/24 01:56:00;;;;;;;61.42;44.22;;;;;;;0.90;59.23;101633.66;2080570;28;20181;-67
2021/12/24 01:57:02;;;;;;;63.03;45.30;;;;;;;-0.21;58.60;101455.22;2080640;28;20271;-67
2021/12/24 01:58:03;;;;;;;63.08;45.47;;;;;;;-0.56;58.41;101396.09;2080486;28;20176;-67
2021/12/24 01:59:04;;;;;;;63.85;45.53;;;;;;;0.88;58.36;101625.81;2080676;28;20713;-67
2021/12/24 02:00:07;;;;;;;66.03;47.07;;;;;;;0.86;58.19;101633.56;2079633;28;20685;-67
2021/12/24 02:01:08;;;;;;;68.82;48.80;;;;;;;0.83;58.34;101628.00;2079900;28;20226;-67
2021/12/24 02:02:09;;;;;;;65.93;48.47;;;;;;;0.36;58.45;101567.66;2080446;28;20181;-67
2021/12/24 02:03:11;;;;;;;69.57;49.63;;;;;;;0.74;58.66;101621.84;2080560;28;20232;-67
2021/12/24 02:04:14;;;;;;;82.35;56.42;;;;;;;0.76;59.31;101614.91;2080464;28;20264;-67
2021/12/24 02:05:14;;;;;;;77.97;53.42;;;;;;;0.74;59.41;101619.13;2080679;28;20181;-67
2021/12/24 02:06:14;;;;;;;84.37;55.83;;;;;;;0.73;59.33;101614.81;2080392;28;20189;-67
2021/12/24 02:07:15;;;;;;;77.63;55.10;;;;;;;0.71;59.13;101614.34;2080779;28;20650;-67
2021/12/24 02:08:17;;;;;;;77.17;51.97;;;;;;;0.26;59.13;101567.34;2080462;28;20235;-67
2021/12/24 02:09:17;;;;;;;72.75;51.78;;;;;;;0.68;58.74;101602.19;2080905;28;20181;-67
2021/12/24 02:10:19;;;;;;;76.10;52.90;;;;;;;0.66;59.45;101601.75;2079718;28;20655;-67
2021/12/24 02:11:20;;;;;;;70.47;48.67;;;;;;;0.15;59.32;101531.53;2079956;28;20643;-67
2021/12/24 02:12:25;;;;;;;72.78;49.65;;;;;;;0.65;59.49;101600.16;2080522;28;20183;-67
2021/12/24 02:13:26;;;;;;;66.60;47.97;;;;;;;0.65;59.50;101597.44;2080620;28;20209;-67
2021/12/24 02:14:34;;;;;;;68.47;49.20;;;;;;;0.63;59.32;101596.94;2080431;28;20177;-67
2021/12/24 02:29:17;;;;;;;64.60;47.80;;;;;;;0.28;59.27;101568.59;2082230;28;20192;-67
2021/12/24 02:30:20;;;;;;;68.27;48.33;;;;;;;0.07;59.23;101524.25;2081340;28;20187;-66
2021/12/24 02:31:23;;;;;;;72.32;49.60;;;;;;;0.27;59.03;101556.06;2081289;28;20208;-67
2021/12/24 02:32:24;;;;;;;72.53;48.85;;;;;;;-0.16;58.66;101504.03;2081965;28;20192;-67
2021/12/24 02:33:24;;;;;;;69.93;49.83;;;;;;;0.23;58.33;101560.63;2082292;28;20180;-67
2021/12/24 02:34:25;;;;;;;67.83;47.43;;;;;;;-1.04;58.39;101362.56;2082019;28;20181;-67
2021/12/24 02:35:26;;;;;;;70.07;48.20;;;;;;;0.01;59.37;101533.00;2082206;28;20188;-67
2021/12/24 02:36:28;;;;;;;68.03;47.47;;;;;;;0.13;59.58;101560.25;2081950;28;20239;-67
2021/12/24 02:37:28;;;;;;;68.10;47.47;;;;;;;0.14;59.74;101562.66;2082213;28;20297;-67
2021/12/24 02:38:29;;;;;;;65.27;48.13;;;;;;;0.13;58.82;101552.91;2082092;28;20197;-67
2021/12/24 02:39:30;;;;;;;67.90;48.07;;;;;;;0.03;58.54;101572.41;2082257;28;20191;-67
2021/12/24 02:40:31;;;;;;;64.57;46.57;;;;;;;0.12;58.67;101545.06;2080660;28;20276;-67
2021/12/24 02:41:31;;;;;;;64.93;46.50;;;;;;;-0.40;58.41;101459.66;2082075;28;20584;-67
2021/12/24 02:42:35;;;;;;;63.53;45.37;;;;;;;0.08;58.79;101542.22;2081802;28;20184;-66
2021/12/24 02:43:36;;;;;;;67.30;47.72;;;;;;;0.04;59.26;101529.59;2082057;28;20180;-67
2021/12/24 02:44:37;;;;;;;65.22;46.97;;;;;;;0.05;59.40;101534.72;2081917;28;20185;-66
2021/12/24 02:45:40;;;;;;;63.43;45.83;;;;;;;0.03;59.85;101545.16;2082308;28;20193;-66
2021/12/24 02:47:05;;;;;;;63.03;44.63;;;;;;;0.02;60.19;101535.38;2081877;28;20666;-66
2021/12/24 02:49:19;;;;;;;59.58;43.08;;;;;;;-0.58;60.42;101447.34;2082052;28;20205;-66
2021/12/24 02:54:01;;;;;;;62.15;43.05;;;;;;;-0.06;61.04;101527.31;2081949;28;20176;-67
2021/12/24 02:55:02;;;;;;;60.53;43.10;;;;;;;-0.04;60.98;101528.56;2082019;28;20688;-67
2021/12/24 02:56:04;;;;;;;61.40;43.45;;;;;;;-0.04;60.94;101528.56;2081695;28;20184;-66
2021/12/24 02:57:09;;;;;;;58.05;41.97;;;;;;;-0.14;60.98;101526.28;2081994;28;20180;-66
2021/12/24 02:58:11;;;;;;;63.22;44.42;;;;;;;-0.22;61.08;101509.25;2081883;28;20180;-66
2021/12/24 02:59:13;;;;;;;62.83;45.53;;;;;;;-0.07;61.25;101542.88;2081435;28;20181;-66
2021/12/24 03:00:19;;;;;;;64.05;44.25;;;;;;;-0.08;61.47;101535.84;2080550;28;20192;-67
2021/12/24 03:01:27;;;;;;;66.75;46.60;;;;;;;-0.09;61.86;101534.22;2088103;28;20591;-66
2021/12/24 03:02:30;;;;;;;63.25;44.83;;;;;;;-0.05;62.08;101534.38;2081761;28;20192;-66
2021/12/24 03:03:31;;;;;;;62.72;44.42;;;;;;;-0.03;61.73;101529.38;2081745;28;20374;-67
2021/12/24 03:04:31;;;;;;;61.60;43.53;;;;;;;-0.02;61.35;101526.31;2081503;28;20184;-66
2021/12/24 03:05:31;;;;;;;60.83;43.93;;;;;;;-0.01;61.28;101527.09;2081978;28;20208;-66
2021/12/24 03:06:35;;;;;;;61.83;44.50;;;;;;;0.03;61.30;101525.28;2081663;28;20185;-66
2021/12/24 03:07:35;;;;;;;64.85;45.83;;;;;;;0.03;61.30;101523.38;2082091;28;20211;-66
2021/12/24 03:08:36;;;;;;;62.33;45.43;;;;;;;0.05;61.16;101523.00;2081698;28;20195;-67
2021/12/24 03:09:36;;;;;;;64.83;45.07;;;;;;;0.03;61.26;101523.38;2082010;28;20268;-66
2021/12/24 03:10:37;;;;;;;70.47;47.77;;;;;;;0.06;61.35;101513.72;2080206;28;20195;-66
2021/12/24 03:11:38;;;;;;;75.03;49.00;;;;;;;0.04;60.94;101516.78;2081978;28;20181;-67
2021/12/24 03:12:39;;;;;;;66.10;46.37;;;;;;;0.06;60.54;101500.88;2081640;28;20181;-66
2021/12/24 03:13:41;;;;;;;65.82;47.03;;;;;;;0.04;60.78;101499.63;2082234;28;20200;-66
2021/12/24 03:14:42;;;;;;;70.63;49.20;;;;;;;0.11;61.17;101516.22;2081634;28;20183;-66
2021/12/24 03:15:42;;;;;;;65.47;45.80;;;;;;;-0.04;61.01;101501.31;2081957;28;20238;-66
2021/12/24 03:16:46;;;;;;;71.97;50.03;;;;;;;-0.01;60.90;101514.28;2081479;28;20263;-66
2021/12/24 03:17:52;;;;;;;77.63;51.90;;;;;;;-0.89;61.13;101367.38;2081745;28;20205;-66
2021/12/24 03:18:52;;;;;;;71.45;49.70;;;;;;;0.04;60.85;101505.06;2081486;28;20175;-66
2021/12/24 03:19:56;;;;;;;68.17;47.03;;;;;;;0.05;60.97;101502.00;2082107;28;20271;-66
2021/12/24 03:21:21;;;;;;;66.88;46.75;;;;;;;0.04;60.11;101505.06;2080792;28;20191;-66
2021/12/24 03:23:42;;;;;;;65.43;43.88;;;;;;;0.06;60.46;101498.13;2081988;28;20630;-66
2021/12/24 03:24:43;;;;;;;63.78;44.90;;;;;;;-0.04;60.37;101484.19;2081408;28;20187;-66
2021/12/24 03:25:43;;;;;;;65.53;46.70;;;;;;;0.02;60.31;101494.50;2081880;28;20217;-66
2021/12/24 03:26:45;;;;;;;63.33;46.00;;;;;;;0.07;60.77;101496.22;2081530;28;20208;-66
2021/12/24 03:27:46;;;;;;;68.78;47.55;;;;;;;0.06;60.77;101492.69;2081880;28;20204;-66
2021/12/24 03:28:46;;;;;;;63.20;45.23;;;;;;;0.09;60.74;101486.56;2081458;28;20184;-66
2021/12/24 03:29:47;;;;;;;67.77;45.83;;;;;;;0.14;60.60;101496.44;2081910;28;20180;-66
2021/12/24 03:30:48;;;;;;;66.25;46.53;;;;;;;0.16;61.18;101484.06;2080009;28;20522;-66
2021/12/24 03:31:48;;;;;;;61.27;43.50;;;;;;;-1.01;61.06;101306.34;2081465;28;20504;-66
2021/12/24 03:32:49;;;;;;;60.17;44.47;;;;;;;0.18;60.49;101495.44;2081421;28;20211;-66
2021/12/24 03:33:53;;;;;;;57.57;43.00;;;;;;;-0.61;60.70;101383.50;2081655;28;20575;-66
2021/12/24 03:34:54;;;;;;;61.67;44.38;;;;;;;0.15;60.96;101498.81;2081526;28;20179;-66
2021/12/24 03:35:54;;;;;;;61.03;43.20;;;;;;;0.07;60.94;101490.78;2081742;28;20176;-66
2021/12/24 03:36:55;;;;;;;58.10;42.07;;;;;;;-1.17;60.44;101301.91;2081477;28;20184;-66
2021/12/24 03:37:56;;;;;;;57.57;42.43;;;;;;;0.02;60.26;101483.59;2081819;28;20804;-66
2021/12/24 03:38:56;;;;;;;58.80;41.37;;;;;;;0.01;60.05;101486.69;2081496;28;20181;-66
2021/12/24 03:39:57;;;;;;;56.23;41.73;;;;;;;-0.02;60.65;101488.16;2081145;28;20254;-66
2021/12/24 03:40:57;;;;;;;59.63;42.23;;;;;;;-0.01;60.86;101483.50;2080598;28;20181;-66
2021/12/24 03:41:58;;;;;;;58.13;42.77;;;;;;;-0.03;61.01;101472.97;2081642;28;20185;-66
2021/12/24 03:42:59;;;;;;;58.10;41.77;;;;;;;-1.24;60.90;101276.41;2081599;28;20883;-66
2021/12/24 03:43:59;;;;;;;62.60;45.07;;;;;;;-0.16;61.22;101454.19;2081494;28;20183;-66
2021/12/24 03:45:10;;;;;;;59.00;44.20;;;;;;;-0.03;61.18;101475.69;2081638;28;20190;-66
2021/12/24 03:46:14;;;;;;;63.40;44.65;;;;;;;-0.01;61.36;101467.13;2081403;28;20161;-66
2021/12/24 03:47:18;;;;;;;63.45;44.42;;;;;;;-0.05;61.45;101486.09;2081834;28;20651;-66
2021/12/24 03:48:28;;;;;;;61.85;44.70;;;;;;;-0.07;61.21;101477.50;2073188;28;20189;-66
2021/12/24 03:49:50;;;;;;;61.15;44.55;;;;;;;-0.06;61.30;101478.28;2073525;28;20272;-66
2021/12/24 03:51:01;;;;;;;60.00;41.90;;;;;;;-0.06;61.31;101475.53;2071924;28;20660;-66
2021/12/24 03:54:59;;;;;;;60.75;42.45;;;;;;;-0.14;61.19;101466.34;2073169;28;20251;-66
2021/12/24 03:55:59;;;;;;;64.57;44.30;;;;;;;-0.13;61.06;101461.69;2073396;28;20176;-66
2021/12/24 03:57:00;;;;;;;65.17;46.00;;;;;;;-0.12;60.91;101469.53;2073379;28;20183;-66
2021/12/24 03:58:00;;;;;;;60.60;42.67;;;;;;;-0.08;60.93;101464.19;2073193;28;20204;-66
2021/12/24 03:59:01;;;;;;;61.07;44.13;;;;;;;-0.03;60.45;101469.44;2073381;28;20228;-66
2021/12/24 04:00:21;;;;;;;64.20;45.67;;;;;;;-0.02;60.40;101471.00;2072323;28;20177;-66
2021/12/24 04:01:22;;;;;;;69.53;46.67;;;;;;;-0.02;60.67;101457.38;2072712;28;20625;-66
2021/12/24 04:02:23;;;;;;;65.40;45.40;;;;;;;-0.27;60.74;101429.34;2073074;28;20185;-66
2021/12/24 04:03:23;;;;;;;63.93;44.50;;;;;;;-0.03;60.61;101464.78;2073197;28;20252;-66
2021/12/24 04:04:24;;;;;;;62.80;43.40;;;;;;;-0.08;60.56;101454.13;2073747;28;20176;-66
2021/12/24 04:05:24;;;;;;;63.80;43.70;;;;;;;-0.09;60.76;101463.41;2081352;28;20662;-66
2021/12/24 04:06:25;;;;;;;63.80;45.07;;;;;;;-0.06;60.66;101457.28;2081150;28;20263;-66
2021/12/24 04:07:25;;;;;;;64.63;44.60;;;;;;;-0.05;60.34;101456.13;2081482;28;20172;-66
2021/12/24 04:08:26;;;;;;;64.40;44.87;;;;;;;-0.06;60.46;101456.47;2081257;28;20657;-66
2021/12/24 04:09:28;;;;;;;61.83;43.13;;;;;;;-0.30;60.38;101434.69;2081494;28;20834;-66
2021/12/24 04:10:39;;;;;;;65.47;44.88;;;;;;;-0.09;60.63;101465.34;2080021;28;20204;-66
2021/12/24 04:11:41;;;;;;;60.72;42.80;;;;;;;-0.05;60.33;101449.91;2081501;28;20185;-66
2021/12/24 04:12:41;;;;;;;68.30;45.35;;;;;;;-0.03;60.55;101450.34;2081185;28;20177;-66
2021/12/24 04:13:42;;;;;;;61.00;43.00;;;;;;;-0.06;60.28;101454.56;2081433;28;20187;-66
2021/12/24 04:14:42;;;;;;;63.20;44.20;;;;;;;-0.09;60.42;101438.88;2081075;28;20174;-66
2021/12/24 04:15:43;;;;;;;67.37;46.23;;;;;;;-0.88;60.44;101322.69;2081556;28;20219;-66
2021/12/24 04:16:43;;;;;;;62.73;44.57;;;;;;;0.01;60.30;101452.03;2080958;28;20180;-66
2021/12/24 04:17:44;;;;;;;61.70;44.27;;;;;;;0.05;60.09;101460.31;2081419;28;20204;-66
2021/12/24 04:25:05;;;;;;;61.40;43.35;;;;;;;-0.10;60.91;101458.31;2081529;28;20156;-66
2021/12/24 04:26:06;;;;;;;63.07;43.90;;;;;;;-0.11;60.63;101465.69;2081070;28;20176;-66
2021/12/24 04:27:06;;;;;;;57.43;42.20;;;;;;;-0.09;60.46;101463.41;2081452;28;20648;-66
2021/12/24 04:28:07;;;;;;;60.37;43.57;;;;;;;-0.27;60.29;101426.63;2081038;28;20180;-66
2021/12/24 04:29:08;;;;;;;61.80;43.10;;;;;;;-0.07;60.33;101455.69;2081173;28;20180;-66
2021/12/24 04:30:13;;;;;;;59.63;41.63;;;;;;;-0.26;60.17;101427.41;2080187;28;20176;-66
2021/12/24 04:31:14;;;;;;;59.42;42.72;;;;;;;-0.19;60.20;101436.59;2080494;28;20255;-66
2021/12/24 04:32:23;;;;;;;64.53;44.42;;;;;;;-1.43;60.42;101266.06;2080313;28;20208;-66
2021/12/24 04:33:30;;;;;;;61.90;43.70;;;;;;;-0.13;60.20;101439.91;2080878;28;20157;-66
2021/12/24 04:34:33;;;;;;;65.53;43.90;;;;;;;-0.34;60.15;101420.94;2081006;28;20172;-66
2021/12/24 04:35:42;;;;;;;63.25;44.33;;;;;;;-0.97;60.20;101325.53;2081238;28;20184;-66
2021/12/24 04:52:07;;;;;;;68.72;46.63;;;;;;;-0.78;61.80;101391.06;2081071;28;20167;-66
2021/12/24 05:01:15;;;;;;;73.63;46.05;;;;;;;-0.50;62.03;101411.09;2080812;28;20171;-66
2021/12/24 05:03:46;;;;;;;70.85;46.45;;;;;;;-0.36;61.47;101416.97;2076047;28;20242;-66
2021/12/24 05:04:50;;;;;;;69.72;47.10;;;;;;;-0.35;61.44;101421.31;2080597;28;20581;-66
2021/12/24 05:06:04;;;;;;;65.15;46.65;;;;;;;-0.35;61.46;101426.75;2081104;28;20191;-66
2021/12/24 05:07:19;;;;;;;69.82;47.42;;;;;;;-0.80;61.74;101350.56;2081014;28;20191;-66
2021/12/24 05:08:23;;;;;;;66.93;44.60;;;;;;;-0.32;61.86;101420.59;2080805;28;20178;-66
2021/12/24 05:09:25;;;;;;;64.25;47.35;;;;;;;-0.30;62.05;101410.97;2080794;28;20668;-66
2021/12/24 05:10:34;;;;;;;71.15;47.65;;;;;;;-0.22;61.98;101409.25;2079774;28;20190;-66
2021/12/24 05:11:35;;;;;;;69.68;49.53;;;;;;;-0.22;61.49;101401.91;2080914;28;20248;-66
2021/12/24 05:12:35;;;;;;;69.13;48.60;;;;;;;-0.19;61.62;101405.88;2080736;28;20642;-66
2021/12/24 05:13:37;;;;;;;68.57;48.80;;;;;;;-1.40;61.50;101200.13;2080966;28;20694;-66
2021/12/24 05:14:37;;;;;;;71.65;46.97;;;;;;;-0.43;61.08;101346.75;2080774;28;20188;-66
2021/12/24 05:15:40;;;;;;;71.20;47.13;;;;;;;-0.14;61.38;101392.78;2081046;28;20709;-66
2021/12/24 05:16:50;;;;;;;69.97;48.28;;;;;;;-0.76;60.72;101290.84;2080505;28;20274;-66
2021/12/24 05:21:33;;;;;;;75.00;47.50;;;;;;;-0.22;60.39;101361.03;2080680;28;20216;-66
2021/12/24 05:21:44;;;;;;;65.60;46.10;;;;;;;0.24;59.84;101406.81;2081075;28;20175;-66
2021/12/24 05:22:44;;;;;;;64.43;46.47;;;;;;;0.23;59.93;101397.06;2080674;28;20626;-66
2021/12/24 05:23:45;;;;;;;65.27;44.87;;;;;;;0.20;60.25;101396.94;2080934;28;20184;-66
2021/12/24 05:24:45;;;;;;;63.27;44.43;;;;;;;0.17;60.08;101403.88;2080621;28;20238;-66
2021/12/24 05:25:47;;;;;;;65.60;45.33;;;;;;;0.18;59.83;101404.69;2080890;28;20180;-66
2021/12/24 05:26:51;;;;;;;61.88;45.03;;;;;;;-0.96;60.18;101240.84;2080604;28;20223;-66
2021/12/24 05:27:55;;;;;;;60.30;44.28;;;;;;;-0.05;60.10;101374.41;2080922;28;20227;-66
2021/12/24 05:28:57;;;;;;;65.28;44.33;;;;;;;0.13;59.84;101424.81;2080623;28;20191;-66
2021/12/24 05:29:58;;;;;;;63.20;44.65;;;;;;;0.10;60.04;101411.03;2080286;28;20179;-66
2021/12/24 05:30:59;;;;;;;63.50;45.67;;;;;;;-0.02;60.38;101417.31;2080329;28;20270;-66
2021/12/24 05:32:00;;;;;;;63.30;44.93;;;;;;;-0.78;60.77;101298.53;2080730;28;20197;-66
2021/12/24 05:33:01;;;;;;;62.05;45.03;;;;;;;-0.01;60.44;101420.81;2080714;28;20184;-66
2021/12/24 05:34:01;;;;;;;66.03;45.10;;;;;;;-0.15;60.73;101437.53;2080557;28;20215;-66
2021/12/24 05:35:03;;;;;;;62.00;43.53;;;;;;;-0.57;60.51;101321.00;2080932;28;20264;-66
2021/12/24 05:36:03;;;;;;;63.10;44.67;;;;;;;0.03;60.25;101408.91;2080613;28;20168;-66
2021/12/24 05:37:04;;;;;;;66.73;45.47;;;;;;;0.08;59.94;101399.69;2080847;28;20639;-66
2021/12/24 05:38:04;;;;;;;63.93;44.67;;;;;;;0.09;59.70;101402.09;2080630;28;20180;-66
2021/12/24 05:39:05;;;;;;;61.73;44.33;;;;;;;0.09;60.01;101399.38;2080914;28;20243;-66
2021/12/24 05:40:07;;;;;;;62.77;44.30;;;;;;;-0.02;59.67;101383.81;2079420;28;20172;-66
2021/12/24 05:41:07;;;;;;;62.17;43.33;;;;;;;0.01;60.38;101394.03;2080176;28;20663;-66
2021/12/24 05:42:08;;;;;;;67.07;43.07;;;;;;;0.03;60.39;101397.22;2080594;28;20566;-66
2021/12/24 05:43:09;;;;;;;65.17;43.60;;;;;;;0.05;59.63;101392.19;2080869;28;20180;-66
2021/12/24 05:44:14;;;;;;;62.03;42.67;;;;;;;-0.94;59.93;101234.28;2080612;28;20250;-66
2021/12/24 05:45:15;;;;;;;57.70;42.08;;;;;;;0.03;59.75;101394.47;2080935;28;20258;-66
2021/12/24 05:46:16;;;;;;;61.97;43.60;;;;;;;-0.01;59.92;101388.13;2080436;28;20192;-66
2021/12/24 05:47:16;;;;;;;62.33;45.03;;;;;;;-0.05;60.14;101379.06;2080843;28;20617;-66
2021/12/24 05:48:17;;;;;;;65.47;44.80;;;;;;;-0.05;60.40;101385.28;2080462;28;20192;-66
2021/12/24 05:49:17;;;;;;;59.33;43.20;;;;;;;-0.04;59.86;101384.16;2080786;28;20552;-66
2021/12/24 05:50:18;;;;;;;64.77;43.87;;;;;;;-0.03;60.50;101391.22;2079774;28;20726;-66
2021/12/24 05:51:18;;;;;;;63.73;42.43;;;;;;;0.03;59.94;101384.38;2080230;28;20239;-66
2021/12/24 05:52:19;;;;;;;60.07;42.90;;;;;;;0.03;59.86;101383.59;2080408;28;20188;-66
2021/12/24 05:53:20;;;;;;;63.90;44.40;;;;;;;-0.57;60.10;101301.16;2080829;28;20187;-66
2021/12/24 05:54:20;;;;;;;65.30;45.37;;;;;;;0.02;60.05;101377.31;2079660;28;20198;-66
2021/12/24 05:55:21;;;;;;;67.53;45.77;;;;;;;0.06;59.47;101382.91;2080304;28;20264;-66
2021/12/24 05:56:22;;;;;;;70.07;48.17;;;;;;;0.02;59.79;101382.78;2080481;28;20658;-66
2021/12/24 05:57:23;;;;;;;69.37;49.10;;;;;;;0.00;60.05;101379.63;2080681;28;20204;-66
2021/12/24 05:58:23;;;;;;;71.53;48.47;;;;;;;-0.42;60.23;101307.50;2081480;28;20219;-66
2021/12/24 05:59:24;;;;;;;67.90;45.17;;;;;;;0.02;60.64;101373.81;2082540;28;20189;-66
2021/12/24 06:00:24;;;;;;;60.17;43.10;;;;;;;0.11;59.85;101375.28;2081377;28;20681;-66
2021/12/24 06:01:25;;;;;;;57.17;41.40;;;;;;;-0.67;59.70;101237.88;2081864;28;20227;-66
2021/12/24 06:02:25;;;;;;;62.97;43.70;;;;;;;0.15;59.78;101370.72;2082164;28;20172;-66
2021/12/24 06:03:26;;;;;;;64.93;45.60;;;;;;;0.10;59.53;101367.44;2082230;28;20239;-66
2021/12/24 06:04:27;;;;;;;64.13;45.33;;;;;;;0.12;59.72;101370.63;2082286;28;20176;-66
2021/12/24 06:05:27;;;;;;;63.37;45.17;;;;;;;0.17;59.93;101365.72;2082481;28;20184;-66
2021/12/24 06:06:28;;;;;;;70.03;48.43;;;;;;;0.18;59.66;101355.63;2081511;28;20208;-66
2021/12/24 06:07:28;;;;;;;68.93;46.80;;;;;;;0.18;60.00;101358.34;2081842;28;20184;-66
2021/12/24 06:08:29;;;;;;;75.50;48.73;;;;;;;-0.32;59.43;101274.34;2082090;28;20621;-66
2021/12/24 06:09:29;;;;;;;75.60;49.47;;;;;;;0.11;59.63;101342.56;2082394;28;20187;-66
2021/12/24 06:10:31;;;;;;;74.33;47.43;;;;;;;0.08;59.51;101342.47;2080708;28;20673;-66
2021/12/24 06:11:31;;;;;;;72.68;48.42;;;;;;;0.26;59.34;101360.16;2082267;28;20184;-66
2021/12/24 06:12:32;;;;;;;70.10;49.20;;;;;;;-0.78;59.01;101195.13;2082108;28;20211;-66
2021/12/24 06:13:33;;;;;;;71.97;47.03;;;;;;;0.36;59.50;101360.44;2082542;28;20208;-66
2021/12/24 06:14:33;;;;;;;70.60;47.07;;;;;;;0.40;59.18;101366.00;2082183;28;20654;-66
2021/12/24 06:15:42;;;;;;;69.07;47.87;;;;;;;0.23;58.86;101325.41;2082314;28;20440;-66
2021/12/24 06:16:58;;;;;;;73.85;48.70;;;;;;;0.45;58.90;101363.81;2081946;28;20256;-66
2021/12/24 06:17:59;;;;;;;70.55;47.42;;;;;;;0.46;58.38;101353.69;2082329;28;20163;-66
2021/12/24 06:19:01;;;;;;;70.17;47.57;;;;;;;-0.09;59.00;101285.53;2082208;28;20245;-66